createdAt,value
2019-02-23T00:00:51.565Z,16.10
2019-02-23T00:03:22.658Z,16.00
2019-02-23T00:05:53.395Z,15.90
2019-02-23T00:08:25.536Z,16.00
2019-02-23T00:10:56.293Z,16.00
2019-02-23T00:13:27.551Z,15.90
2019-02-23T00:15:58.545Z,15.90
2019-02-23T00:18:29.769Z,16.30
2019-02-23T00:21:04.184Z,15.70
2019-02-23T00:23:35.220Z,15.80
2019-02-23T00:26:06.263Z,15.80
2019-02-23T00:28:37.403Z,15.70
2019-02-23T00:31:08.614Z,15.70
2019-02-23T00:33:39.784Z,15.70
2019-02-23T00:36:10.871Z,15.60
2019-02-23T00:38:41.881Z,15.50
2019-02-23T00:41:12.808Z,15.40
2019-02-23T00:43:44.943Z,15.40
2019-02-23T00:46:15.996Z,15.40
2019-02-23T00:48:47.277Z,15.50
2019-02-23T00:51:18.315Z,15.70
2019-02-23T00:53:51.693Z,15.70
2019-02-23T00:56:22.569Z,15.60
2019-02-23T00:58:53.475Z,15.60
2019-02-23T01:01:26.811Z,15.60
2019-02-23T01:03:57.782Z,15.60
2019-02-23T01:06:28.941Z,15.60
2019-02-23T01:09:00.088Z,15.50
2019-02-23T01:11:31.162Z,15.40
2019-02-23T01:14:02.389Z,15.40
2019-02-23T01:16:33.521Z,15.30
2019-02-23T01:19:06.411Z,15.30
2019-02-23T01:21:37.611Z,15.40
2019-02-23T01:24:08.876Z,15.40
2019-02-23T01:26:39.848Z,15.40
2019-02-23T01:29:11.010Z,15.40
2019-02-23T01:31:42.086Z,15.40
2019-02-23T01:34:13.334Z,15.40
2019-02-23T01:36:44.564Z,15.40
2019-02-23T01:39:15.558Z,15.30
2019-02-23T01:41:46.612Z,15.30
2019-02-23T01:44:17.473Z,15.40
2019-02-23T01:46:48.435Z,15.40
2019-02-23T01:49:19.624Z,15.40
2019-02-23T01:51:50.879Z,15.30
2019-02-23T01:54:21.911Z,15.30
2019-02-23T01:56:53.440Z,15.20
2019-02-23T01:59:25.061Z,15.20
2019-02-23T02:01:56.010Z,15.20
2019-02-23T02:04:28.221Z,15.20
2019-02-23T02:06:59.204Z,15.30
2019-02-23T02:09:30.463Z,15.30
2019-02-23T02:12:01.235Z,15.30
2019-02-23T02:14:32.249Z,15.30
2019-02-23T02:17:03.211Z,15.40
2019-02-23T02:19:34.296Z,15.30
2019-02-23T02:22:05.259Z,15.40
2019-02-23T02:24:36.238Z,15.20
2019-02-23T02:27:07.296Z,14.90
2019-02-23T02:29:38.419Z,14.80
2019-02-23T02:32:10.022Z,14.50
2019-02-23T02:34:41.510Z,14.30
2019-02-23T02:37:12.659Z,14.20
2019-02-23T02:39:43.608Z,14.10
2019-02-23T02:42:15.865Z,15.20
2019-02-23T02:44:46.980Z,14.20
2019-02-23T02:47:18.070Z,14.20
2019-02-23T02:49:49.099Z,14.20
2019-02-23T02:52:20.307Z,14.20
2019-02-23T02:54:51.256Z,14.20
2019-02-23T02:57:21.977Z,14.20
2019-02-23T02:59:53.366Z,14.20
2019-02-23T03:02:24.374Z,14.30
2019-02-23T03:04:55.126Z,14.30
2019-02-23T03:07:26.471Z,14.40
2019-02-23T03:09:58.072Z,14.50
2019-02-23T03:12:29.321Z,14.50
2019-02-23T03:15:00.057Z,14.60
2019-02-23T03:17:30.938Z,14.60
2019-02-23T03:20:01.784Z,14.50
2019-02-23T03:22:35.977Z,14.50
2019-02-23T03:25:07.249Z,14.50
2019-02-23T03:27:38.318Z,14.60
2019-02-23T03:30:10.642Z,14.60
2019-02-23T03:32:41.716Z,14.60
2019-02-23T03:35:12.831Z,14.60
2019-02-23T03:37:43.857Z,14.60
2019-02-23T03:40:14.949Z,14.70
2019-02-23T03:42:45.834Z,14.70
2019-02-23T03:45:16.943Z,14.80
2019-02-23T03:47:48.194Z,14.70
2019-02-23T03:50:20.447Z,14.80
2019-02-23T03:52:51.557Z,14.70
2019-02-23T03:55:22.585Z,14.80
2019-02-23T03:57:53.755Z,14.70
2019-02-23T04:00:29.685Z,14.70
2019-02-23T04:03:00.652Z,14.70
2019-02-23T04:05:32.023Z,14.70
2019-02-23T04:08:02.732Z,14.70
2019-02-23T04:10:33.955Z,14.70
2019-02-23T04:13:05.014Z,14.70
2019-02-23T04:15:36.348Z,14.70
2019-02-23T04:18:07.387Z,14.70
2019-02-23T04:20:38.655Z,14.70
2019-02-23T04:23:09.599Z,14.60
2019-02-23T04:25:40.609Z,14.80
2019-02-23T04:28:11.668Z,14.70
2019-02-23T04:30:48.956Z,14.80
2019-02-23T04:33:20.374Z,14.70
2019-02-23T04:35:51.746Z,14.70
2019-02-23T04:38:22.871Z,14.70
2019-02-23T04:40:53.913Z,14.70
2019-02-23T04:43:25.117Z,14.60
2019-02-23T04:45:55.802Z,14.60
2019-02-23T04:48:26.910Z,14.50
2019-02-23T04:50:58.189Z,14.60
2019-02-23T04:53:29.306Z,14.60
2019-02-23T04:56:00.200Z,14.50
2019-02-23T04:58:31.124Z,14.50
2019-02-23T05:01:02.467Z,14.50
2019-02-23T05:03:33.395Z,14.40
2019-02-23T05:06:04.622Z,14.40
2019-02-23T05:08:35.782Z,14.40
2019-02-23T05:11:07.135Z,14.50
2019-02-23T05:13:41.926Z,14.50
2019-02-23T05:16:13.406Z,14.40
2019-02-23T05:18:44.640Z,14.40
2019-02-23T05:21:25.964Z,14.30
2019-02-23T05:23:48.235Z,14.30
2019-02-23T05:26:19.415Z,14.30
2019-02-23T05:28:50.563Z,14.30
2019-02-23T05:31:22.305Z,14.30
2019-02-23T05:33:53.743Z,14.30
2019-02-23T05:36:24.922Z,14.20
2019-02-23T05:38:56.149Z,14.20
2019-02-23T05:41:27.338Z,14.30
2019-02-23T05:43:58.404Z,14.30
2019-02-23T05:46:29.592Z,14.20
2019-02-23T05:49:00.187Z,14.20
2019-02-23T05:51:38.610Z,14.20
2019-02-23T05:54:03.693Z,14.20
2019-02-23T05:56:34.880Z,14.20
2019-02-23T05:59:06.006Z,14.10
2019-02-23T06:01:37.112Z,14.20
2019-02-23T06:04:08.074Z,14.30
2019-02-23T06:06:38.979Z,14.20
2019-02-23T06:09:09.967Z,14.10
2019-02-23T06:11:41.146Z,14.30
2019-02-23T06:14:12.336Z,14.30
2019-02-23T06:16:43.559Z,14.20
2019-02-23T06:19:14.548Z,14.20
2019-02-23T06:21:53.790Z,14.10
2019-02-23T06:24:22.053Z,14.10
2019-02-23T06:26:53.952Z,14.10
2019-02-23T06:29:25.834Z,14.10
2019-02-23T06:31:56.624Z,14.10
2019-02-23T06:34:27.648Z,14.00
2019-02-23T06:36:58.693Z,14.00
2019-02-23T06:39:29.711Z,14.00
2019-02-23T06:42:00.807Z,14.00
2019-02-23T06:44:31.987Z,14.00
2019-02-23T06:47:05.470Z,14.00
2019-02-23T06:49:36.417Z,14.00
2019-02-23T06:52:08.285Z,14.00
2019-02-23T06:54:39.332Z,14.00
2019-02-23T06:57:10.559Z,14.10
2019-02-23T06:59:41.614Z,14.10
2019-02-23T07:02:13.356Z,14.10
2019-02-23T07:04:44.501Z,14.10
2019-02-23T07:07:16.370Z,14.10
2019-02-23T07:09:47.449Z,14.10
2019-02-23T07:12:19.337Z,14.20
2019-02-23T07:14:50.639Z,14.20
2019-02-23T07:17:21.905Z,14.30
2019-02-23T07:19:56.287Z,14.40
2019-02-23T07:22:28.594Z,14.40
2019-02-23T07:25:00.329Z,14.50
2019-02-23T07:27:32.045Z,14.60
2019-02-23T07:30:03.689Z,14.60
2019-02-23T07:32:35.434Z,14.50
2019-02-23T07:35:06.917Z,14.50
2019-02-23T07:37:38.749Z,14.50
2019-02-23T07:40:10.478Z,14.50
2019-02-23T07:42:41.557Z,14.60
2019-02-23T07:45:12.860Z,15.10
2019-02-23T07:47:44.061Z,16.80
2019-02-23T07:50:15.268Z,18.80
2019-02-23T07:52:46.926Z,19.40
2019-02-23T07:55:18.319Z,19.70
2019-02-23T07:57:49.502Z,19.30
2019-02-23T08:00:20.564Z,18.80
2019-02-23T08:02:51.644Z,18.10
2019-02-23T08:05:22.926Z,17.80
2019-02-23T08:07:54.350Z,17.60
2019-02-23T08:10:25.339Z,17.40
2019-02-23T08:12:56.429Z,17.30
2019-02-23T08:15:27.487Z,17.20
2019-02-23T08:17:58.796Z,17.20
2019-02-23T08:20:32.150Z,17.20
2019-02-23T08:23:03.381Z,17.10
2019-02-23T08:25:34.524Z,17.10
2019-02-23T08:28:05.967Z,17.30
2019-02-23T08:30:37.116Z,17.30
2019-02-23T08:33:08.576Z,17.40
2019-02-23T08:35:39.615Z,17.40
2019-02-23T08:38:10.722Z,17.40
2019-02-23T08:40:41.706Z,17.50
2019-02-23T08:43:12.909Z,17.60
2019-02-23T08:45:44.229Z,17.70
2019-02-23T08:48:15.425Z,17.70
2019-02-23T08:50:46.475Z,17.50
2019-02-23T08:53:17.950Z,16.20
2019-02-23T08:55:49.402Z,17.70
2019-02-23T08:58:20.572Z,17.80
2019-02-23T09:00:51.671Z,17.80
2019-02-23T09:03:22.789Z,17.90
2019-02-23T09:05:54.616Z,17.90
2019-02-23T09:08:25.791Z,18.00
2019-02-23T09:10:56.448Z,17.80
2019-02-23T09:13:27.561Z,17.80
2019-02-23T09:15:58.306Z,17.80
2019-02-23T09:18:29.671Z,17.90
2019-02-23T09:21:00.590Z,18.00
2019-02-23T09:23:31.902Z,17.90
2019-02-23T09:26:07.194Z,17.70
2019-02-23T09:28:38.184Z,17.70
2019-02-23T09:31:09.499Z,17.40
2019-02-23T09:33:40.517Z,17.50
2019-02-23T09:36:11.817Z,17.60
2019-02-23T09:38:42.940Z,17.80
2019-02-23T09:41:15.193Z,18.00
2019-02-23T09:43:46.224Z,18.10
2019-02-23T09:46:18.514Z,18.30
2019-02-23T09:48:49.641Z,18.30
2019-02-23T09:51:20.653Z,18.20
2019-02-23T09:53:51.759Z,18.30
2019-02-23T09:56:24.215Z,18.30
2019-02-23T09:58:55.078Z,18.30
2019-02-23T10:01:26.560Z,18.40
2019-02-23T10:03:57.669Z,18.30
2019-02-23T10:06:28.847Z,18.20
2019-02-23T10:09:00.705Z,18.10
2019-02-23T10:11:33.559Z,17.80
2019-02-23T10:14:07.276Z,18.10
2019-02-23T10:16:37.772Z,18.20
2019-02-23T10:19:09.100Z,18.50
2019-02-23T10:21:40.458Z,18.50
2019-02-23T10:24:11.869Z,18.60
2019-02-23T10:26:43.226Z,18.50
2019-02-23T10:29:14.556Z,18.50
2019-02-23T10:31:45.928Z,18.70
2019-02-23T10:34:17.174Z,18.70
2019-02-23T10:36:48.222Z,18.70
2019-02-23T10:39:19.453Z,19.00
2019-02-23T10:41:50.542Z,19.20
2019-02-23T10:44:21.949Z,19.10
2019-02-23T10:46:53.185Z,18.70
2019-02-23T10:49:24.452Z,18.50
2019-02-23T10:51:56.414Z,18.40
2019-02-23T10:54:27.979Z,18.40
2019-02-23T10:56:58.897Z,18.50
2019-02-23T10:59:29.953Z,18.60
2019-02-23T11:02:00.886Z,18.70
2019-02-23T11:04:32.121Z,18.90
2019-02-23T11:07:02.816Z,19.00
2019-02-23T11:09:38.126Z,19.10
2019-02-23T11:12:09.347Z,19.30
2019-02-23T11:14:40.919Z,19.60
2019-02-23T11:17:11.860Z,19.70
2019-02-23T11:19:43.230Z,19.80
2019-02-23T11:22:14.568Z,19.80
2019-02-23T11:24:45.822Z,19.50
2019-02-23T11:27:17.189Z,19.50
2019-02-23T11:29:48.541Z,19.80
2019-02-23T11:32:19.679Z,19.50
2019-02-23T11:34:51.090Z,19.40
2019-02-23T11:37:22.409Z,19.70
2019-02-23T11:39:55.781Z,19.90
2019-02-23T11:42:26.987Z,20.00
2019-02-23T11:44:58.329Z,20.20
2019-02-23T11:47:29.511Z,20.30
2019-02-23T11:50:00.409Z,20.40
2019-02-23T11:52:31.599Z,20.50
2019-02-23T11:55:02.644Z,20.50
2019-02-23T11:57:33.647Z,20.40
2019-02-23T12:00:05.067Z,20.40
2019-02-23T12:02:37.622Z,20.40
2019-02-23T12:05:09.377Z,20.50
2019-02-23T12:07:40.621Z,20.50
2019-02-23T12:10:17.590Z,20.40
2019-02-23T12:12:48.837Z,20.40
2019-02-23T12:15:19.952Z,20.30
2019-02-23T12:17:51.048Z,20.30
2019-02-23T12:20:22.305Z,20.20
2019-02-23T12:22:53.971Z,20.30
2019-02-23T12:25:25.371Z,20.50
2019-02-23T12:27:56.496Z,20.60
2019-02-23T12:30:27.472Z,20.70
2019-02-23T12:32:58.816Z,20.70
2019-02-23T12:35:30.268Z,20.80
2019-02-23T12:38:01.925Z,20.60
2019-02-23T12:40:33.278Z,19.90
2019-02-23T12:43:08.349Z,20.20
2019-02-23T12:45:46.417Z,20.30
2019-02-23T12:48:18.168Z,20.40
2019-02-23T12:50:49.212Z,20.30
2019-02-23T12:53:20.365Z,20.30
2019-02-23T12:55:51.677Z,20.50
2019-02-23T12:58:23.164Z,20.50
2019-02-23T13:00:55.327Z,20.40
2019-02-23T13:03:26.399Z,20.30
2019-02-23T13:05:57.625Z,20.30
2019-02-23T13:08:51.491Z,20.30
2019-02-23T13:11:22.764Z,20.40
2019-02-23T13:14:40.604Z,20.60
2019-02-23T13:17:54.509Z,20.70
2019-02-23T13:21:13.691Z,20.80
2019-02-23T13:24:14.213Z,20.80
2019-02-23T13:27:26.801Z,20.70
2019-02-23T13:30:27.361Z,20.80
2019-02-23T13:33:37.937Z,21.60
2019-02-23T13:36:47.389Z,23.80
2019-02-23T13:39:50.088Z,25.30
2019-02-23T13:43:13.863Z,27.30
2019-02-23T13:46:24.859Z,27.00
2019-02-23T13:53:32.623Z,26.90
2019-02-23T13:56:40.137Z,29.70
2019-02-23T13:59:56.693Z,29.60
2019-02-23T14:03:14.709Z,30.20
2019-02-23T14:06:12.128Z,28.60
2019-02-23T14:09:27.024Z,29.50
2019-02-23T14:12:26.373Z,29.60
2019-02-23T14:15:36.168Z,29.60
2019-02-23T14:18:22.660Z,28.50
2019-02-23T14:21:09.850Z,27.90
2019-02-23T14:24:27.767Z,26.70
2019-02-23T14:27:21.260Z,25.90
2019-02-23T14:30:45.855Z,25.60
2019-02-23T14:34:08.152Z,25.00
2019-02-23T14:36:56.423Z,24.40
2019-02-23T14:40:16.040Z,23.60
2019-02-23T14:43:38.713Z,22.80
2019-02-23T14:46:56.233Z,22.50
2019-02-23T14:49:55.612Z,21.90
2019-02-23T14:52:42.334Z,20.70
2019-02-23T14:55:42.913Z,19.80
2019-02-23T14:58:57.757Z,19.30
2019-02-23T15:01:37.121Z,18.80
2019-02-23T15:04:57.967Z,18.40
2019-02-23T15:07:49.756Z,17.90
2019-02-23T15:18:54.915Z,17.60
2019-02-23T15:22:09.153Z,17.30
2019-02-23T15:25:12.487Z,17.30
2019-02-23T15:28:24.864Z,17.00
2019-02-23T15:31:09.944Z,16.90
2019-02-23T15:34:09.237Z,17.00
2019-02-23T15:37:29.685Z,17.10
2019-02-23T15:40:37.396Z,17.20
2019-02-23T15:43:30.576Z,17.50
2019-02-23T15:46:38.078Z,17.60
2019-02-23T15:49:34.390Z,17.40
2019-02-23T15:52:09.105Z,17.30
2019-02-23T15:54:40.139Z,17.00
2019-02-23T15:57:11.262Z,17.30
2019-02-23T15:59:44.445Z,17.00
2019-02-23T16:02:15.573Z,16.80
2019-02-23T16:04:46.926Z,16.70
2019-02-23T16:07:18.470Z,16.60
2019-02-23T16:09:49.806Z,16.50
2019-02-23T16:12:21.221Z,16.40
2019-02-23T16:14:52.562Z,16.40
2019-02-23T16:17:23.637Z,16.40
2019-02-23T16:19:55.567Z,16.30
2019-02-23T16:22:26.818Z,16.30
2019-02-23T16:24:57.685Z,16.20
2019-02-23T16:27:28.850Z,16.20
2019-02-23T16:29:59.499Z,16.10
2019-02-23T16:32:31.466Z,15.90
2019-02-23T16:35:02.326Z,15.90
2019-02-23T16:37:33.469Z,15.90
2019-02-23T16:40:05.448Z,15.80
2019-02-23T16:42:37.013Z,15.70
2019-02-23T16:45:08.475Z,15.70
2019-02-23T16:47:40.199Z,15.80
2019-02-23T16:50:11.524Z,15.90
2019-02-23T16:52:42.336Z,15.70
2019-02-23T16:55:14.027Z,15.70
2019-02-23T16:57:44.814Z,15.60
2019-02-23T17:00:16.271Z,15.70
2019-02-23T17:02:50.100Z,15.70
2019-02-23T17:05:21.977Z,15.60
2019-02-23T17:07:53.971Z,15.60
2019-02-23T17:10:25.323Z,15.50
2019-02-23T17:12:56.255Z,15.50
2019-02-23T17:15:27.371Z,15.50
2019-02-23T17:17:58.535Z,15.60
2019-02-23T17:20:30.025Z,15.60
2019-02-23T17:23:02.130Z,15.60
2019-02-23T17:25:33.472Z,15.50
2019-02-23T17:28:07.690Z,15.40
2019-02-23T17:30:39.473Z,15.40
2019-02-23T17:33:11.746Z,15.40
2019-02-23T17:35:43.173Z,15.40
2019-02-23T17:38:16.809Z,15.40
2019-02-23T17:40:47.320Z,15.40
2019-02-23T17:43:18.851Z,15.30
2019-02-23T17:45:49.982Z,15.20
2019-02-23T17:48:21.309Z,15.20
2019-02-23T17:50:52.550Z,15.10
2019-02-23T17:53:23.595Z,15.20
2019-02-23T17:55:55.092Z,15.20
2019-02-23T17:58:26.340Z,15.20
2019-02-23T18:00:57.803Z,15.20
2019-02-23T18:03:28.908Z,15.10
2019-02-23T18:06:00.267Z,15.10
2019-02-23T18:08:33.777Z,15.00
2019-02-23T18:11:04.744Z,15.00
2019-02-23T18:13:36.374Z,14.90
2019-02-23T18:16:07.609Z,14.80
2019-02-23T18:18:38.861Z,14.80
2019-02-23T18:21:10.203Z,14.80
2019-02-23T18:23:41.433Z,14.90
2019-02-23T18:26:21.110Z,15.00
2019-02-23T18:28:51.740Z,15.00
2019-02-23T18:31:23.165Z,15.00
2019-02-23T18:33:57.727Z,14.90
2019-02-23T18:36:30.071Z,14.90
2019-02-23T18:39:00.866Z,14.70
2019-02-23T18:41:33.626Z,14.70
2019-02-23T18:44:05.938Z,14.70
2019-02-23T18:46:37.038Z,14.70
2019-02-23T18:49:08.469Z,14.70
2019-02-23T18:51:39.739Z,14.70
2019-02-23T18:54:10.985Z,14.60
2019-02-23T18:56:42.236Z,14.60
2019-02-23T18:59:13.280Z,14.60
2019-02-23T19:01:44.833Z,14.50
2019-02-23T19:04:17.397Z,14.50
2019-02-23T19:06:48.761Z,14.40
2019-02-23T19:09:20.031Z,14.40
2019-02-23T19:11:51.602Z,14.30
2019-02-23T19:14:22.738Z,14.20
2019-02-23T19:16:54.164Z,14.30
2019-02-23T19:19:25.452Z,14.30
2019-02-23T19:21:56.642Z,14.30
2019-02-23T19:24:28.029Z,14.30
2019-02-23T19:26:58.751Z,14.30
2019-02-23T19:29:29.787Z,14.20
2019-02-23T19:32:00.623Z,14.10
2019-02-23T19:34:31.787Z,14.20
2019-02-23T19:37:02.881Z,14.20
2019-02-23T19:39:33.975Z,14.10
2019-02-23T19:42:05.306Z,14.20
2019-02-23T19:44:36.312Z,14.20
2019-02-23T19:47:16.313Z,14.20
2019-02-23T19:49:52.484Z,14.30
2019-02-23T19:52:23.721Z,14.40
2019-02-23T19:54:56.301Z,14.40
2019-02-23T19:57:27.500Z,14.40
2019-02-23T19:59:58.154Z,14.40
2019-02-23T20:02:29.302Z,14.30
2019-02-23T20:05:00.441Z,14.30
2019-02-23T20:07:32.800Z,14.30
2019-02-23T20:10:03.521Z,14.30
2019-02-23T20:12:34.560Z,14.30
2019-02-23T20:15:06.284Z,14.20
2019-02-23T20:17:37.626Z,14.20
2019-02-23T20:20:10.173Z,14.20
2019-02-23T20:22:41.318Z,14.20
2019-02-23T20:25:12.426Z,14.20
2019-02-23T20:27:43.591Z,14.10
2019-02-23T20:30:14.883Z,14.20
2019-02-23T20:32:49.385Z,14.30
2019-02-23T20:35:22.326Z,14.30
2019-02-23T20:37:53.600Z,14.30
2019-02-23T20:40:25.732Z,14.20
2019-02-23T20:42:56.673Z,14.30
2019-02-23T20:45:28.811Z,14.20
2019-02-23T20:47:59.487Z,14.30
2019-02-23T20:50:30.727Z,14.30
2019-02-23T20:53:01.534Z,14.40
2019-02-23T20:55:32.730Z,14.40
2019-02-23T20:58:03.508Z,14.40
2019-02-23T21:00:34.547Z,14.40
2019-02-23T21:03:05.716Z,14.30
2019-02-23T21:05:36.652Z,14.10
2019-02-23T21:08:07.380Z,14.10
2019-02-23T21:10:38.492Z,14.10
2019-02-23T21:13:09.866Z,14.00
2019-02-23T21:15:40.948Z,14.10
2019-02-23T21:18:12.299Z,14.10
2019-02-23T21:20:43.406Z,14.20
2019-02-23T21:23:14.589Z,14.10
2019-02-23T21:25:45.534Z,14.00
2019-02-23T21:28:16.653Z,14.00
2019-02-23T21:30:48.797Z,14.00
2019-02-23T21:33:19.878Z,13.90
2019-02-23T21:35:54.571Z,13.90
2019-02-23T21:38:25.939Z,13.90
2019-02-23T21:40:56.842Z,13.90
2019-02-23T21:43:28.115Z,13.90
2019-02-23T21:45:58.962Z,13.90
2019-02-23T21:48:30.176Z,13.90
2019-02-23T21:51:01.631Z,13.80
2019-02-23T21:53:34.160Z,13.20
2019-02-23T21:56:06.273Z,13.80
2019-02-23T21:58:37.482Z,13.90
2019-02-23T22:01:08.645Z,13.90
2019-02-23T22:03:39.869Z,14.00
2019-02-23T22:06:11.053Z,13.90
2019-02-23T22:08:42.253Z,14.00
2019-02-23T22:11:13.834Z,13.90
2019-02-23T22:13:45.281Z,14.00
2019-02-23T22:16:16.411Z,14.00
2019-02-23T22:18:47.618Z,14.00
2019-02-23T22:21:20.176Z,14.00
2019-02-23T22:23:51.761Z,13.90
2019-02-23T22:26:22.839Z,13.90
2019-02-23T22:28:54.081Z,14.00
2019-02-23T22:31:25.342Z,14.00
2019-02-23T22:33:56.798Z,14.00
2019-02-23T22:36:27.853Z,13.90
2019-02-23T22:38:58.587Z,14.00
2019-02-23T22:41:29.585Z,13.90
2019-02-23T22:44:00.794Z,13.90
2019-02-23T22:46:31.986Z,13.80
2019-02-23T22:49:03.285Z,13.80
2019-02-23T22:51:34.830Z,13.80
2019-02-23T22:54:05.813Z,13.70
2019-02-23T22:56:36.827Z,13.70
2019-02-23T22:59:12.037Z,13.70
2019-02-23T23:01:44.410Z,13.60
2019-02-23T23:04:15.637Z,13.60
2019-02-23T23:06:46.857Z,13.60
2019-02-23T23:09:19.676Z,13.50
2019-02-23T23:11:50.696Z,13.50
2019-02-23T23:14:21.815Z,13.50
2019-02-23T23:16:54.521Z,13.50
2019-02-23T23:19:25.662Z,13.50
2019-02-23T23:21:56.659Z,13.50
2019-02-23T23:24:27.705Z,13.50
2019-02-23T23:26:58.771Z,13.50
2019-02-23T23:29:29.725Z,13.60
2019-02-23T23:32:00.966Z,13.50
2019-02-23T23:34:32.105Z,13.50
2019-02-23T23:37:02.833Z,13.50
2019-02-23T23:39:33.996Z,13.50
2019-02-23T23:42:06.539Z,13.50
2019-02-23T23:44:37.662Z,13.50
2019-02-23T23:47:08.279Z,13.50
2019-02-23T23:49:39.906Z,13.50
2019-02-23T23:52:10.935Z,13.60
2019-02-23T23:54:42.427Z,13.50
2019-02-23T23:57:13.303Z,13.60
2019-02-23T23:59:44.320Z,13.60
